Terminal Aerodrome Forecast
Issued by NWS

Home | Current Version | Previous Version | Graphics & Text | Print | Product List | Glossary On
Versions: 1 2 3 4 5 6 7 8 9 10 11 12 13 14 15 16 17 18 19 20
000
FTUS43 KABR 242053 AAA
TAFATY
TAF AMD
KATY 242053Z 2421/2518 08008KT 4SM -RA BR OVC007
     FM242200 08009KT P6SM OVC025
     FM250000 06006KT P6SM OVC010
      TEMPO 2503/2506 4SM -RA BR SCT008 BKN015 OVC025
     FM250600 01006KT 4SM -RA BR OVC008
     FM251600 33007KT P6SM -SHRA OVC015=

USA.gov is the U.S. government's official web portal to all federal, state and local government web resources and services.